Surfer 2204 — FLSH — position and weather

sailwx.info

Track history (hours):
 
Tides and Currents Weather Stations Pressure Air Temp Water Temp Dewpoint Dewpoint Depression Visibility Wind Speed Wind Dir Waves Ship Positions

Surfer 2204

Last reported at 2018-May-10 15:56 UTC. Time now 2018-Jun-23 19:37 UTC.
Position S 05°05' E 011°33'.
Warning: this ship's position is 44 days out of date.

Length 22 m; draft 0.9 m.

MMSI: 228334700.

Date/timePositionNaut miles runAvg speedWind from/ knotsBaromVisibWave heightAir tempDewpointWater temp
2018-May-10 15:56S 05°05' E 011°33'921.6
2018-May-10 15:30S 05°12' E 011°27'612.6
2018-May-10 15:00S 05°17' E 011°23'1 1.1
2018-May-10 14:30S 05°17' E 011°24'1 1.7
2018-May-10 14:00S 05°17' E 011°24'0 0.0
2018-May-10 13:29S 05°17' E 011°24'0 0.0
2018-May-10 13:00S 05°17' E 011°24'0 0.0
2018-May-10 12:30S 05°17' E 011°24'0 0.0
2018-May-10 12:00S 05°17' E 011°24'0 0.0
2018-May-10 11:29S 05°17' E 011°24'0 0.0
2018-May-10 11:00S 05°17' E 011°24'0 0.0
2018-May-10 10:29S 05°17' E 011°24'0 0.0
2018-May-10 10:00S 05°17' E 011°24'0 0.0
2018-May-10 09:29S 05°17' E 011°24'0 0.0
2018-May-10 09:00S 05°17' E 011°24'0 0.1
2018-May-10 08:30S 05°17' E 011°24'0 0.0
2018-May-10 08:00S 05°17' E 011°24'1 2.7
2018-May-10 07:30S 05°17' E 011°23'612.2
2018-May-10 07:00S 05°12' E 011°27'8 0.5
2018-May-09 15:23S 05°11' E 011°34'821.1
2018-May-09 15:00S 05°18' E 011°30'611.5
2018-May-09 14:30S 05°23' E 011°27'0 0.2
2018-May-09 14:00S 05°23' E 011°27'1 1.4
2018-May-09 13:30S 05°23' E 011°26'713.9
2018-May-09 13:00S 05°17' E 011°23'4 8.2
2018-May-09 12:28S 05°21' E 011°25'2 1.2
2018-May-09 10:37S 05°23' E 011°26'0 0.1
2018-May-09 10:30S 05°23' E 011°26'0 0.0
2018-May-09 09:49S 05°23' E 011°26'0 0.0
2018-May-09 09:27S 05°23' E 011°26'0 0.0
2018-May-09 08:24S 05°23' E 011°26'0 1.2
2018-May-09 08:00S 05°23' E 011°27'4 8.5
2018-May-09 07:30S 05°19' E 011°28'6 0.4
2018-May-08 14:18S 05°16' E 011°34'510.4
2018-May-08 13:48S 05°19' E 011°30'511.0
2018-May-08 13:22S 05°23' E 011°27'0 0.2
2018-May-08 12:59S 05°23' E 011°27'0 0.3
2018-May-08 11:30S 05°23' E 011°26'0 0.1
2018-May-08 10:35S 05°23' E 011°26'0 1.1
2018-May-08 10:17S 05°23' E 011°27'0 0.8
2018-May-08 10:00S 05°23' E 011°27'611.3
2018-May-08 09:30S 05°18' E 011°30'  
2018-May-03 14:51S 05°07' E 011°31'923.6
2018-May-03 14:28S 05°14' E 011°25'3 7.3
2018-May-03 14:00S 05°17' E 011°23'1 1.9
2018-May-03 13:30S 05°17' E 011°24'0 0.0
2018-May-03 12:59S 05°17' E 011°24'0 0.0
2018-May-03 12:29S 05°17' E 011°24'0 0.0
2018-May-03 12:00S 05°17' E 011°24'0 0.0
2018-May-03 11:30S 05°17' E 011°24'2 3.6
2018-May-03 11:00S 05°17' E 011°23'0 0.4
2018-May-03 10:30S 05°17' E 011°23'0 0.7
2018-May-03 09:57S 05°17' E 011°23'0 0.1
2018-May-03 09:30S 05°17' E 011°23'0 0.3
2018-May-03 08:57S 05°17' E 011°23'1 1.2
2018-May-03 08:29S 05°17' E 011°23'1 1.5
2018-May-03 08:00S 05°17' E 011°23'714.0
2018-May-03 07:30S 05°23' E 011°27'9 0.5
2018-May-02 15:10S 05°15' E 011°31'623.3
2018-May-02 14:56S 05°20' E 011°28'3 6.7
2018-May-02 14:30S 05°23' E 011°27'0 0.1
2018-May-02 09:24S 05°23' E 011°26'0 0.0
2018-May-02 09:00S 05°23' E 011°26'0 0.0
2018-May-02 08:28S 05°23' E 011°26'0 0.0
2018-May-02 07:53S 05°23' E 011°26'0 1.2
2018-May-02 07:30S 05°23' E 011°27'712.7
2018-May-02 07:00S 05°17' E 011°30'1 0.1
2018-May-01 12:24S 05°18' E 011°29'5 1.8
2018-May-01 09:29S 05°23' E 011°27'  
Track history (hours):
 
Tides and Currents Weather Stations Pressure Air Temp Water Temp Dewpoint Dewpoint Depression Visibility Wind Speed Wind Dir Waves Ship Positions

Surfer 2204

Last reported at 2018-May-10 15:56 UTC. Time now 2018-Jun-23 19:37 UTC.
Position S 05°05' E 011°33'.
Warning: this ship's position is 44 days out of date.

Length 22 m; draft 0.9 m.

MMSI: 228334700.

Date/timePositionNaut miles runAvg speedWind from/ knotsBaromVisibWave heightAir tempDewpointWater temp
2018-May-10 15:56S 05°05' E 011°33'921.6
2018-May-10 15:30S 05°12' E 011°27'612.6
2018-May-10 15:00S 05°17' E 011°23'1 1.1
2018-May-10 14:30S 05°17' E 011°24'1 1.7
2018-May-10 14:00S 05°17' E 011°24'0 0.0
2018-May-10 13:29S 05°17' E 011°24'0 0.0
2018-May-10 13:00S 05°17' E 011°24'0 0.0
2018-May-10 12:30S 05°17' E 011°24'0 0.0
2018-May-10 12:00S 05°17' E 011°24'0 0.0
2018-May-10 11:29S 05°17' E 011°24'0 0.0
2018-May-10 11:00S 05°17' E 011°24'0 0.0
2018-May-10 10:29S 05°17' E 011°24'0 0.0
2018-May-10 10:00S 05°17' E 011°24'0 0.0
2018-May-10 09:29S 05°17' E 011°24'0 0.0
2018-May-10 09:00S 05°17' E 011°24'0 0.1
2018-May-10 08:30S 05°17' E 011°24'0 0.0
2018-May-10 08:00S 05°17' E 011°24'1 2.7
2018-May-10 07:30S 05°17' E 011°23'612.2
2018-May-10 07:00S 05°12' E 011°27'8 0.5
2018-May-09 15:23S 05°11' E 011°34'821.1
2018-May-09 15:00S 05°18' E 011°30'611.5
2018-May-09 14:30S 05°23' E 011°27'0 0.2
2018-May-09 14:00S 05°23' E 011°27'1 1.4
2018-May-09 13:30S 05°23' E 011°26'713.9
2018-May-09 13:00S 05°17' E 011°23'4 8.2
2018-May-09 12:28S 05°21' E 011°25'2 1.2
2018-May-09 10:37S 05°23' E 011°26'0 0.1
2018-May-09 10:30S 05°23' E 011°26'0 0.0
2018-May-09 09:49S 05°23' E 011°26'0 0.0
2018-May-09 09:27S 05°23' E 011°26'0 0.0
2018-May-09 08:24S 05°23' E 011°26'0 1.2
2018-May-09 08:00S 05°23' E 011°27'4 8.5
2018-May-09 07:30S 05°19' E 011°28'6 0.4
2018-May-08 14:18S 05°16' E 011°34'510.4
2018-May-08 13:48S 05°19' E 011°30'511.0
2018-May-08 13:22S 05°23' E 011°27'0 0.2
2018-May-08 12:59S 05°23' E 011°27'0 0.3
2018-May-08 11:30S 05°23' E 011°26'0 0.1
2018-May-08 10:35S 05°23' E 011°26'0 1.1
2018-May-08 10:17S 05°23' E 011°27'0 0.8
2018-May-08 10:00S 05°23' E 011°27'611.3
2018-May-08 09:30S 05°18' E 011°30'  
2018-May-03 14:51S 05°07' E 011°31'923.6
2018-May-03 14:28S 05°14' E 011°25'3 7.3
2018-May-03 14:00S 05°17' E 011°23'1 1.9
2018-May-03 13:30S 05°17' E 011°24'0 0.0
2018-May-03 12:59S 05°17' E 011°24'0 0.0
2018-May-03 12:29S 05°17' E 011°24'0 0.0
2018-May-03 12:00S 05°17' E 011°24'0 0.0
2018-May-03 11:30S 05°17' E 011°24'2 3.6
2018-May-03 11:00S 05°17' E 011°23'0 0.4
2018-May-03 10:30S 05°17' E 011°23'0 0.7
2018-May-03 09:57S 05°17' E 011°23'0 0.1
2018-May-03 09:30S 05°17' E 011°23'0 0.3
2018-May-03 08:57S 05°17' E 011°23'1 1.2
2018-May-03 08:29S 05°17' E 011°23'1 1.5
2018-May-03 08:00S 05°17' E 011°23'714.0
2018-May-03 07:30S 05°23' E 011°27'9 0.5
2018-May-02 15:10S 05°15' E 011°31'623.3
2018-May-02 14:56S 05°20' E 011°28'3 6.7
2018-May-02 14:30S 05°23' E 011°27'0 0.1
2018-May-02 09:24S 05°23' E 011°26'0 0.0
2018-May-02 09:00S 05°23' E 011°26'0 0.0
2018-May-02 08:28S 05°23' E 011°26'0 0.0
2018-May-02 07:53S 05°23' E 011°26'0 1.2
2018-May-02 07:30S 05°23' E 011°27'712.7
2018-May-02 07:00S 05°17' E 011°30'1 0.1
2018-May-01 12:24S 05°18' E 011°29'5 1.8
2018-May-01 09:29S 05°23' E 011°27'  

Dump ship's entire track history